Terminal Aerodrome Forecast
Issued by NWS Hastings, NE

Home | Current Version | Previous Version | Text Only | Print | Product List | Glossary On
Versions: 1 2 3 4 5 6 7 8 9 10 11 12 13 14 15 16 17 18 19 20 21 22 23 24 25 26 27
000
FTUS43 KGID 290520
TAFGRI
TAF
KGRI 290520Z 2906/3006 03009KT P6SM VCSH OVC015
     FM291000 02012G19KT P6SM VCSH OVC025
     FM291500 03018G25KT P6SM -RA OVC015
     FM291800 02022G31KT 5SM RA OVC010
     FM292200 02020G28KT 3SM RA OVC008=

USA.gov is the U.S. government's official web portal to all federal, state and local government web resources and services.